createdAt,value
2019-05-20T00:02:25.898Z,7.53
2019-05-20T00:04:48.574Z,7.70
2019-05-20T00:07:16.627Z,6.83
2019-05-20T00:09:44.649Z,8.77
2019-05-20T00:12:12.735Z,8.53
2019-05-20T00:14:40.778Z,7.00
2019-05-20T00:17:08.817Z,6.93
2019-05-20T00:19:36.882Z,8.47
2019-05-20T00:22:04.944Z,8.10
2019-05-20T00:24:33.008Z,8.57
2019-05-20T00:27:02.695Z,6.90
2019-05-20T00:29:32.361Z,8.37
2019-05-20T00:32:00.398Z,8.67
2019-05-20T00:34:35.175Z,6.67
2019-05-20T00:36:58.227Z,5.40
2019-05-20T00:39:26.266Z,8.53
2019-05-20T00:41:54.409Z,8.40
2019-05-20T00:44:22.458Z,7.17
2019-05-20T00:46:50.497Z,8.27
2019-05-20T00:49:18.593Z,7.60
2019-05-20T00:51:46.694Z,6.30
2019-05-20T00:54:14.735Z,6.80
2019-05-20T00:56:42.803Z,5.50
2019-05-20T00:59:10.914Z,7.00
2019-05-20T01:01:38.951Z,6.57
2019-05-20T01:04:07.019Z,6.03
2019-05-20T01:06:35.059Z,7.90
2019-05-20T01:09:04.066Z,8.63
2019-05-20T01:11:32.602Z,8.17
2019-05-20T01:14:00.638Z,8.83
2019-05-20T01:16:28.712Z,7.90
2019-05-20T01:18:56.819Z,7.43
2019-05-20T01:21:24.860Z,7.23
2019-05-20T01:23:52.911Z,7.83
2019-05-20T01:26:20.966Z,7.50
2019-05-20T01:28:49.002Z,8.23
2019-05-20T01:31:17.042Z,8.97
2019-05-20T01:33:45.166Z,6.63
2019-05-20T01:36:13.239Z,9.13
2019-05-20T01:38:41.279Z,9.83
2019-05-20T01:41:09.396Z,7.63
2019-05-20T01:43:37.435Z,7.40
2019-05-20T01:46:07.364Z,7.00
2019-05-20T01:48:35.439Z,6.23
2019-05-20T01:51:03.483Z,8.77
2019-05-20T01:53:31.524Z,8.20
2019-05-20T01:55:59.599Z,7.07
2019-05-20T01:58:27.646Z,8.03
2019-05-20T02:00:55.684Z,8.50
2019-05-20T02:03:31.557Z,6.50
2019-05-20T02:05:53.515Z,8.47
2019-05-20T02:08:21.578Z,6.77
2019-05-20T02:10:49.635Z,6.00
2019-05-20T02:13:17.682Z,7.30
2019-05-20T02:15:59.351Z,10.03
2019-05-20T02:18:27.417Z,8.47
2019-05-20T02:20:55.449Z,6.40
2019-05-20T02:23:23.616Z,6.47
2019-05-20T02:25:51.656Z,5.70
2019-05-20T02:28:19.695Z,9.20
2019-05-20T02:30:47.757Z,7.10
2019-05-20T02:33:15.794Z,6.33
2019-05-20T02:35:43.839Z,7.40
2019-05-20T02:38:11.972Z,11.33
2019-05-20T02:40:40.005Z,7.93
2019-05-20T02:43:08.118Z,7.03
2019-05-20T02:45:36.163Z,6.07
2019-05-20T02:48:06.667Z,5.43
2019-05-20T02:50:34.716Z,5.37
2019-05-20T02:53:03.008Z,5.57
2019-05-20T02:55:31.038Z,6.87
2019-05-20T02:57:59.091Z,7.60
2019-05-20T03:00:27.160Z,6.40
2019-05-20T03:02:55.205Z,8.13
2019-05-20T03:05:23.246Z,6.13
2019-05-20T03:07:51.302Z,6.33
2019-05-20T03:10:19.347Z,6.33
2019-05-20T03:12:47.378Z,6.17
2019-05-20T03:15:15.517Z,10.13
2019-05-20T03:17:43.555Z,7.17
2019-05-20T03:20:11.664Z,7.90
2019-05-20T03:22:39.750Z,7.97
2019-05-20T03:25:08.067Z,6.77
2019-05-20T03:27:36.121Z,7.70
2019-05-20T03:30:05.735Z,7.20
2019-05-20T03:32:33.776Z,6.07
2019-05-20T03:35:02.257Z,6.83
2019-05-20T03:37:30.446Z,7.23
2019-05-20T03:39:58.491Z,8.80
2019-05-20T03:42:26.541Z,9.67
2019-05-20T03:44:55.087Z,8.47
2019-05-20T03:47:23.131Z,6.70
2019-05-20T03:49:51.902Z,8.30
2019-05-20T03:52:19.965Z,8.67
2019-05-20T03:54:48.030Z,6.03
2019-05-20T03:57:16.099Z,7.10
2019-05-20T03:59:44.171Z,8.03
2019-05-20T04:02:12.215Z,8.73
2019-05-20T04:04:40.262Z,36.47
2019-05-20T04:07:08.802Z,9.30
2019-05-20T04:09:36.846Z,7.80
2019-05-20T04:12:04.887Z,7.17
2019-05-20T04:14:32.948Z,7.00
2019-05-20T04:17:00.986Z,6.10
2019-05-20T04:19:29.059Z,7.67
2019-05-20T04:21:57.167Z,6.40
2019-05-20T04:24:25.215Z,6.10
2019-05-20T04:26:57.554Z,6.07
2019-05-20T04:29:25.981Z,8.60
2019-05-20T04:31:54.116Z,7.27
2019-05-20T04:34:22.155Z,7.87
2019-05-20T04:36:50.267Z,6.47
2019-05-20T04:39:18.335Z,6.37
2019-05-20T04:41:46.390Z,8.53
2019-05-20T04:44:14.432Z,7.00
2019-05-20T04:46:42.471Z,6.80
2019-05-20T04:49:10.515Z,8.20
2019-05-20T04:51:38.619Z,9.20
2019-05-20T04:54:06.667Z,7.20
2019-05-20T04:56:34.703Z,7.23
2019-05-20T04:59:02.767Z,8.70
2019-05-20T05:01:30.812Z,8.53
2019-05-20T05:03:58.862Z,7.23
2019-05-20T05:06:26.907Z,7.50
2019-05-20T05:08:54.947Z,6.60
2019-05-20T05:11:22.982Z,9.70
2019-05-20T05:13:51.970Z,10.57
2019-05-20T05:16:20.076Z,6.93
2019-05-20T05:18:48.110Z,7.47
2019-05-20T05:21:16.187Z,10.33
2019-05-20T05:23:58.277Z,8.17
2019-05-20T05:26:13.974Z,8.57
2019-05-20T05:28:42.116Z,7.97
2019-05-20T05:31:10.163Z,7.90
2019-05-20T05:33:38.202Z,9.93
2019-05-20T05:36:06.283Z,8.67
2019-05-20T05:38:34.318Z,8.97
2019-05-20T05:41:02.357Z,10.30
2019-05-20T05:43:30.409Z,9.77
2019-05-20T05:45:58.462Z,10.03
2019-05-20T05:48:26.507Z,12.77
2019-05-20T05:50:54.590Z,11.10
2019-05-20T05:53:24.171Z,10.60
2019-05-20T05:55:52.223Z,12.27
2019-05-20T05:58:20.309Z,11.07
2019-05-20T06:00:48.343Z,14.33
2019-05-20T06:03:16.406Z,13.33
2019-05-20T06:05:44.458Z,12.37
2019-05-20T06:08:12.516Z,11.50
2019-05-20T06:10:40.567Z,14.30
2019-05-20T06:13:08.678Z,12.53
2019-05-20T06:15:36.718Z,15.53
2019-05-20T06:18:04.775Z,13.70
2019-05-20T06:20:32.908Z,16.17
2019-05-20T06:23:00.951Z,16.70
2019-05-20T06:25:29.025Z,14.87
2019-05-20T06:27:57.102Z,15.13
2019-05-20T06:30:26.695Z,16.10
2019-05-20T06:32:54.752Z,13.80
2019-05-20T06:35:22.819Z,12.63
2019-05-20T06:37:52.514Z,16.03
2019-05-20T06:40:20.634Z,13.50
2019-05-20T06:42:49.169Z,12.40
2019-05-20T06:45:17.292Z,14.90
2019-05-20T06:47:45.330Z,14.93
2019-05-20T06:50:13.472Z,13.70
2019-05-20T06:52:41.523Z,15.13
2019-05-20T06:55:10.375Z,17.47
2019-05-20T06:57:38.433Z,16.67
2019-05-20T07:00:07.727Z,15.00
2019-05-20T07:02:35.781Z,14.33
2019-05-20T07:05:05.099Z,19.53
2019-05-20T07:07:33.203Z,17.73
2019-05-20T07:10:01.271Z,16.93
2019-05-20T07:12:40.440Z,18.40
2019-05-20T07:14:59.147Z,20.27
2019-05-20T07:17:27.202Z,19.87
2019-05-20T07:19:55.275Z,15.73
2019-05-20T07:22:23.326Z,20.73
2019-05-20T07:24:51.403Z,19.87
2019-05-20T07:27:19.944Z,18.90
2019-05-20T07:29:47.987Z,20.07
2019-05-20T07:32:16.030Z,18.43
2019-05-20T07:34:44.100Z,19.70
2019-05-20T07:37:12.138Z,17.23
2019-05-20T07:39:40.188Z,17.60
2019-05-20T07:42:08.250Z,16.17
2019-05-20T07:44:36.304Z,17.13
2019-05-20T07:47:04.416Z,17.03
2019-05-20T07:49:33.319Z,13.10
2019-05-20T07:52:01.364Z,13.77
2019-05-20T07:54:29.435Z,15.07
2019-05-20T07:57:00.075Z,13.80
2019-05-20T07:59:28.701Z,12.00
2019-05-20T08:01:56.755Z,15.87
2019-05-20T08:04:24.853Z,14.40
2019-05-20T08:06:53.151Z,12.57
2019-05-20T08:09:21.240Z,13.97
2019-05-20T08:11:49.329Z,13.37
2019-05-20T08:14:17.378Z,13.50
2019-05-20T08:16:45.418Z,15.50
2019-05-20T08:19:13.486Z,13.00
2019-05-20T08:21:41.538Z,13.97
2019-05-20T08:24:09.574Z,12.20
2019-05-20T08:26:37.703Z,13.97
2019-05-20T08:29:05.877Z,16.07
2019-05-20T08:31:33.927Z,14.17
2019-05-20T08:34:02.029Z,15.87
2019-05-20T08:36:30.082Z,14.33
2019-05-20T08:38:58.391Z,13.10
2019-05-20T08:41:26.499Z,13.17
2019-05-20T08:43:54.630Z,14.63
2019-05-20T08:46:22.678Z,15.83
2019-05-20T08:48:50.828Z,16.90
2019-05-20T08:51:18.905Z,16.80
2019-05-20T08:53:46.999Z,15.77
2019-05-20T08:56:15.142Z,14.00
2019-05-20T08:58:43.608Z,13.00
2019-05-20T09:01:12.517Z,12.57
2019-05-20T09:03:40.722Z,18.20
2019-05-20T09:06:08.758Z,16.07
2019-05-20T09:08:36.798Z,14.47
2019-05-20T09:11:04.878Z,18.60
2019-05-20T09:13:32.939Z,14.10
2019-05-20T09:16:00.982Z,12.07
2019-05-20T09:18:29.055Z,12.27
2019-05-20T09:20:57.098Z,13.97
2019-05-20T09:23:25.149Z,14.73
2019-05-20T09:25:53.222Z,14.20
2019-05-20T09:28:21.279Z,16.67
2019-05-20T09:30:49.394Z,16.70
2019-05-20T09:33:17.530Z,12.00
2019-05-20T09:35:45.575Z,11.87
2019-05-20T09:38:20.432Z,12.70
2019-05-20T09:40:48.040Z,12.97
2019-05-20T09:43:16.260Z,11.37
2019-05-20T09:45:44.309Z,10.93
2019-05-20T09:48:13.138Z,11.03
2019-05-20T09:50:41.185Z,9.90
2019-05-20T09:53:09.348Z,11.13
2019-05-20T09:55:37.606Z,11.43
2019-05-20T09:58:06.047Z,11.63
2019-05-20T10:00:35.346Z,12.10
2019-05-20T10:03:04.414Z,12.10
2019-05-20T10:05:32.902Z,12.13
2019-05-20T10:08:01.755Z,14.33
2019-05-20T10:10:30.038Z,8.20
2019-05-20T10:12:58.179Z,8.13
2019-05-20T10:15:26.351Z,9.50
2019-05-20T10:17:54.478Z,9.00
2019-05-20T10:20:22.525Z,9.50
2019-05-20T10:22:50.738Z,9.83
2019-05-20T10:25:19.883Z,9.63
2019-05-20T10:27:47.938Z,9.27
2019-05-20T10:30:16.648Z,7.90
2019-05-20T10:32:44.745Z,7.30
2019-05-20T10:35:12.955Z,9.90
2019-05-20T10:37:41.005Z,7.90
2019-05-20T10:40:09.135Z,9.13
2019-05-20T10:42:37.222Z,8.47
2019-05-20T10:45:05.563Z,7.97
2019-05-20T10:47:33.695Z,9.43
2019-05-20T10:50:01.809Z,8.33
2019-05-20T10:52:29.876Z,7.37
2019-05-20T10:54:57.951Z,7.17
2019-05-20T10:57:25.983Z,8.17
2019-05-20T10:59:54.087Z,11.20
2019-05-20T11:02:23.347Z,8.20
2019-05-20T11:04:51.473Z,11.80
2019-05-20T11:07:19.530Z,9.47
2019-05-20T11:09:48.358Z,9.20
2019-05-20T11:12:16.474Z,10.23
2019-05-20T11:14:44.782Z,10.03
2019-05-20T11:17:15.024Z,11.37
2019-05-20T11:19:42.669Z,12.40
2019-05-20T11:22:10.739Z,10.70
2019-05-20T11:24:38.807Z,12.90
2019-05-20T11:27:06.857Z,12.60
2019-05-20T11:29:38.042Z,14.30
2019-05-20T11:32:06.223Z,15.77
2019-05-20T11:34:34.307Z,15.67
2019-05-20T11:37:02.416Z,13.23
2019-05-20T11:39:33.733Z,16.27
2019-05-20T11:42:00.559Z,17.00
2019-05-20T11:44:28.594Z,16.03
2019-05-20T11:46:56.655Z,20.90
2019-05-20T11:49:28.796Z,21.63
2019-05-20T11:51:54.498Z,21.03
2019-05-20T11:54:22.583Z,22.10
2019-05-20T11:56:50.638Z,22.47
2019-05-20T11:59:18.725Z,25.23
2019-05-20T12:01:46.784Z,23.00
2019-05-20T12:04:16.042Z,22.50
2019-05-20T12:06:44.087Z,28.57
2019-05-20T12:09:12.150Z,25.60
2019-05-20T12:11:40.195Z,25.70
2019-05-20T12:14:08.242Z,22.83
2019-05-20T12:16:36.338Z,25.70
2019-05-20T12:19:04.382Z,30.23
2019-05-20T12:21:32.437Z,29.83
2019-05-20T12:24:00.579Z,30.27
2019-05-20T12:26:28.623Z,32.27
2019-05-20T12:28:56.694Z,29.03
2019-05-20T12:31:24.774Z,33.53
2019-05-20T12:33:52.817Z,30.13
2019-05-20T12:36:20.861Z,32.67
2019-05-20T12:38:48.986Z,33.63
2019-05-20T12:41:17.041Z,31.43
2019-05-20T12:43:45.341Z,30.83
2019-05-20T12:46:13.540Z,30.30
2019-05-20T12:48:41.599Z,29.63
2019-05-20T12:51:09.650Z,31.67
2019-05-20T12:53:37.735Z,31.57
2019-05-20T12:56:05.769Z,30.77
2019-05-20T12:58:33.824Z,33.33
2019-05-20T13:01:01.931Z,32.93
2019-05-20T13:03:29.986Z,34.10
2019-05-20T13:05:58.217Z,33.70
2019-05-20T13:08:26.276Z,31.30
2019-05-20T13:10:54.391Z,35.17
2019-05-20T13:13:22.460Z,35.27
2019-05-20T13:15:50.510Z,41.93
2019-05-20T13:18:18.560Z,39.97
2019-05-20T13:20:46.606Z,43.37
2019-05-20T13:23:15.948Z,42.17
2019-05-20T13:25:44.103Z,47.90
2019-05-20T13:28:12.151Z,50.20
2019-05-20T13:30:40.250Z,44.23
2019-05-20T13:33:08.293Z,46.87
2019-05-20T13:35:36.347Z,50.20
2019-05-20T13:38:04.491Z,51.17
2019-05-20T13:40:46.070Z,54.07
2019-05-20T13:43:02.310Z,48.43
2019-05-20T13:45:30.858Z,53.87
2019-05-20T13:47:58.917Z,46.63
2019-05-20T13:50:27.001Z,51.60
2019-05-20T13:52:55.136Z,52.67
2019-05-20T13:55:23.182Z,53.23
2019-05-20T13:57:52.817Z,52.77
2019-05-20T14:00:20.988Z,52.37
2019-05-20T14:02:49.053Z,59.63
2019-05-20T14:05:17.175Z,52.53
2019-05-20T14:07:45.988Z,51.00
2019-05-20T14:10:14.223Z,57.37
2019-05-20T14:12:42.279Z,51.60
2019-05-20T14:15:10.414Z,54.00
2019-05-20T14:17:38.713Z,56.60
2019-05-20T14:20:07.043Z,50.70
2019-05-20T14:22:35.103Z,52.87
2019-05-20T14:25:03.929Z,53.63
2019-05-20T14:27:31.968Z,52.50
2019-05-20T14:30:00.120Z,53.07
2019-05-20T14:32:28.296Z,53.73
2019-05-20T14:34:56.343Z,57.30
2019-05-20T14:37:24.420Z,52.57
2019-05-20T14:39:52.495Z,53.43
2019-05-20T14:42:20.543Z,48.30
2019-05-20T14:44:48.642Z,50.03
2019-05-20T14:47:16.687Z,51.87
2019-05-20T14:49:44.736Z,53.57
2019-05-20T14:52:13.668Z,47.63
2019-05-20T14:54:41.726Z,56.10
2019-05-20T14:57:09.771Z,45.27
2019-05-20T14:59:37.851Z,46.00
2019-05-20T15:02:05.991Z,48.57
2019-05-20T15:04:34.057Z,49.90
2019-05-20T15:07:02.185Z,45.37
2019-05-20T15:09:31.420Z,47.87
2019-05-20T15:11:59.467Z,47.90
2019-05-20T15:14:27.595Z,44.23
2019-05-20T15:16:55.645Z,45.13
2019-05-20T15:19:23.760Z,45.87
2019-05-20T15:21:51.826Z,43.20
2019-05-20T15:24:19.879Z,39.77
2019-05-20T15:26:47.984Z,47.10
2019-05-20T15:29:27.551Z,42.33
2019-05-20T15:31:45.841Z,46.47
2019-05-20T15:34:13.906Z,46.93
2019-05-20T15:36:42.240Z,45.20
2019-05-20T15:39:10.273Z,46.23
2019-05-20T15:41:38.323Z,40.90
2019-05-20T15:44:06.386Z,46.07
2019-05-20T15:46:34.443Z,37.10
2019-05-20T15:49:02.492Z,45.23
2019-05-20T15:51:30.570Z,41.33
2019-05-20T15:53:58.647Z,39.93
2019-05-20T15:56:26.691Z,40.23
2019-05-20T15:58:54.840Z,42.60
2019-05-20T16:01:22.875Z,46.43
2019-05-20T16:03:51.660Z,40.87
2019-05-20T16:06:22.389Z,39.60
2019-05-20T16:08:50.510Z,44.63
2019-05-20T16:11:19.050Z,46.60
2019-05-20T16:13:47.126Z,44.57
2019-05-20T16:16:15.174Z,38.50
2019-05-20T16:18:43.256Z,41.13
2019-05-20T16:21:11.371Z,35.10
2019-05-20T16:23:39.423Z,38.07
2019-05-20T16:26:07.474Z,40.40
2019-05-20T16:28:35.546Z,37.43
2019-05-20T16:31:03.618Z,39.67
2019-05-20T16:33:31.824Z,35.77
2019-05-20T16:35:59.861Z,37.10
2019-05-20T16:38:28.106Z,33.13
2019-05-20T16:40:56.390Z,34.80
2019-05-20T16:43:24.941Z,34.43
2019-05-20T16:45:53.024Z,31.30
2019-05-20T16:48:21.347Z,37.07
2019-05-20T16:50:49.427Z,43.80
2019-05-20T16:53:17.612Z,37.17
2019-05-20T16:55:45.819Z,38.40
2019-05-20T16:58:13.935Z,43.77
2019-05-20T17:00:42.199Z,38.63
2019-05-20T17:03:10.242Z,38.33
2019-05-20T17:05:38.878Z,36.13
2019-05-20T17:08:07.044Z,39.53
2019-05-20T17:10:35.127Z,59.40
2019-05-20T17:13:03.973Z,37.37
2019-05-20T17:15:32.024Z,38.07
2019-05-20T17:18:00.088Z,37.50
2019-05-20T17:20:28.187Z,36.20
2019-05-20T17:22:56.238Z,35.40
2019-05-20T17:25:24.313Z,38.87
2019-05-20T17:27:54.922Z,33.53
2019-05-20T17:30:22.976Z,32.90
2019-05-20T17:32:51.023Z,37.67
2019-05-20T17:35:19.183Z,36.57
2019-05-20T17:37:47.249Z,38.23
2019-05-20T17:40:15.546Z,37.80
2019-05-20T17:42:43.693Z,38.23
2019-05-20T17:45:12.014Z,33.37
2019-05-20T17:47:40.144Z,36.63
2019-05-20T17:50:08.675Z,38.43
2019-05-20T17:52:36.792Z,35.97
2019-05-20T17:55:05.811Z,37.00
2019-05-20T17:57:33.979Z,34.70
2019-05-20T18:00:02.574Z,36.47
2019-05-20T18:02:30.955Z,35.80
2019-05-20T18:04:59.066Z,33.93
2019-05-20T18:07:27.115Z,41.13
2019-05-20T18:09:55.606Z,35.67
2019-05-20T18:12:23.759Z,34.57
2019-05-20T18:14:56.712Z,37.70
2019-05-20T18:17:24.858Z,35.73
2019-05-20T18:19:52.965Z,37.33
2019-05-20T18:22:21.063Z,36.23
2019-05-20T18:24:49.155Z,36.37
2019-05-20T18:27:17.275Z,37.80
2019-05-20T18:29:47.399Z,40.17
2019-05-20T18:32:15.531Z,35.07
2019-05-20T18:34:43.643Z,37.73
2019-05-20T18:37:11.725Z,32.67
2019-05-20T18:39:39.850Z,37.10
2019-05-20T18:42:07.947Z,35.20
2019-05-20T18:44:36.111Z,37.67
2019-05-20T18:47:04.156Z,34.20
2019-05-20T18:49:32.245Z,37.33
2019-05-20T18:52:00.466Z,32.70
2019-05-20T18:54:28.659Z,36.77
2019-05-20T18:56:56.903Z,32.87
2019-05-20T18:59:25.026Z,39.27
2019-05-20T19:02:04.698Z,33.87
2019-05-20T19:04:23.032Z,36.67
2019-05-20T19:06:51.135Z,36.20
2019-05-20T19:09:19.189Z,35.67
2019-05-20T19:11:47.374Z,37.87
2019-05-20T19:14:15.443Z,41.20
2019-05-20T19:16:44.047Z,38.43
2019-05-20T19:19:13.218Z,38.17
2019-05-20T19:21:41.358Z,39.30
2019-05-20T19:24:09.451Z,36.97
2019-05-20T19:26:37.609Z,37.70
2019-05-20T19:29:05.829Z,38.30
2019-05-20T19:31:34.143Z,40.10
2019-05-20T19:34:02.226Z,42.37
2019-05-20T19:36:30.331Z,45.10
2019-05-20T19:38:58.476Z,43.40
2019-05-20T19:41:26.682Z,42.67
2019-05-20T19:43:54.778Z,39.97
2019-05-20T19:46:22.810Z,39.00
2019-05-20T19:48:50.987Z,39.43
2019-05-20T19:51:19.050Z,40.40
2019-05-20T19:53:47.122Z,42.97
2019-05-20T19:56:15.254Z,44.67
2019-05-20T19:58:43.330Z,40.87
2019-05-20T20:01:11.442Z,37.30
2019-05-20T20:03:39.647Z,37.20
2019-05-20T20:06:07.726Z,40.37
2019-05-20T20:08:35.807Z,35.57
2019-05-20T20:11:04.024Z,33.87
2019-05-20T20:13:34.057Z,33.20
2019-05-20T20:16:01.988Z,31.97
2019-05-20T20:18:30.614Z,31.23
2019-05-20T20:20:58.715Z,29.23
2019-05-20T20:23:26.775Z,27.10
2019-05-20T20:25:54.867Z,26.67
2019-05-20T20:28:22.971Z,32.53
2019-05-20T20:30:51.018Z,32.10
2019-05-20T20:33:19.087Z,30.50
2019-05-20T20:35:47.134Z,31.87
2019-05-20T20:38:15.181Z,34.93
2019-05-20T20:40:43.254Z,36.40
2019-05-20T20:43:11.315Z,35.00
2019-05-20T20:45:39.366Z,37.00
2019-05-20T20:48:09.227Z,34.53
2019-05-20T20:50:37.311Z,31.00
2019-05-20T20:53:05.363Z,33.40
2019-05-20T20:55:33.798Z,31.53
2019-05-20T20:58:01.842Z,23.83
2019-05-20T21:00:29.927Z,25.40
2019-05-20T21:02:58.000Z,21.17
2019-05-20T21:05:26.055Z,25.97
2019-05-20T21:07:54.190Z,23.27
2019-05-20T21:10:22.329Z,24.63
2019-05-20T21:12:50.554Z,24.87
2019-05-20T21:15:18.781Z,31.00
2019-05-20T21:17:46.844Z,31.63
2019-05-20T21:20:15.558Z,31.83
2019-05-20T21:22:43.622Z,36.73
2019-05-20T21:25:11.762Z,34.53
2019-05-20T21:27:39.853Z,34.60
2019-05-20T21:30:08.674Z,36.83
2019-05-20T21:32:36.758Z,37.20
2019-05-20T21:35:05.081Z,35.43
2019-05-20T21:37:33.131Z,33.03
2019-05-20T21:40:01.205Z,30.13
2019-05-20T21:42:29.253Z,35.73
2019-05-20T21:44:57.310Z,37.60
2019-05-20T21:47:25.374Z,33.27
2019-05-20T21:49:53.440Z,41.37
2019-05-20T21:52:21.494Z,45.00
2019-05-20T21:54:49.614Z,41.70
2019-05-20T21:57:19.588Z,46.23
2019-05-20T21:59:47.634Z,46.03
2019-05-20T22:02:15.714Z,56.03
2019-05-20T22:04:43.810Z,53.57
2019-05-20T22:07:11.874Z,56.23
2019-05-20T22:09:39.939Z,62.33
2019-05-20T22:12:07.990Z,55.47
2019-05-20T22:14:36.042Z,59.97
2019-05-20T22:17:04.159Z,61.80
2019-05-20T22:19:32.202Z,65.63
2019-05-20T22:22:12.607Z,57.67
2019-05-20T22:24:40.667Z,54.20
2019-05-20T22:27:08.718Z,52.90
2019-05-20T22:29:40.313Z,46.77
2019-05-20T22:32:08.370Z,41.13
2019-05-20T22:34:36.419Z,40.40
2019-05-20T22:37:04.539Z,39.67
2019-05-20T22:39:32.578Z,37.77
2019-05-20T22:42:00.674Z,39.20
2019-05-20T22:44:28.723Z,37.77
2019-05-20T22:46:56.780Z,38.17
2019-05-20T22:49:24.941Z,39.63
2019-05-20T22:51:53.070Z,37.00
2019-05-20T22:54:21.123Z,35.10
2019-05-20T22:56:49.199Z,39.73
2019-05-20T22:59:17.298Z,36.93
2019-05-20T23:01:45.342Z,39.13
2019-05-20T23:04:13.394Z,38.33
2019-05-20T23:06:41.461Z,37.90
2019-05-20T23:09:10.841Z,39.50
2019-05-20T23:11:39.058Z,35.07
2019-05-20T23:14:07.138Z,34.07
2019-05-20T23:16:35.194Z,34.70
2019-05-20T23:19:03.242Z,35.53
2019-05-20T23:21:31.806Z,36.43
2019-05-20T23:24:01.520Z,38.33
2019-05-20T23:26:29.571Z,40.03
2019-05-20T23:28:57.638Z,37.10
2019-05-20T23:31:25.683Z,39.57
2019-05-20T23:33:53.883Z,40.97
2019-05-20T23:36:22.034Z,38.97
2019-05-20T23:38:50.065Z,42.57
2019-05-20T23:41:18.178Z,43.73
2019-05-20T23:43:46.316Z,45.40
2019-05-20T23:46:14.352Z,43.27
2019-05-20T23:48:42.399Z,43.73
2019-05-20T23:51:10.479Z,41.93
2019-05-20T23:53:38.526Z,42.47
2019-05-20T23:56:06.574Z,41.43
2019-05-20T23:58:34.642Z,33.97
